createdAt,value
2022-10-04T00:02:40.249Z,4.60
2022-10-04T00:06:49.648Z,4.60
2022-10-04T00:11:05.137Z,4.50
2022-10-04T00:15:20.788Z,4.40
2022-10-04T00:19:47.221Z,4.30
2022-10-04T00:23:50.501Z,4.30
2022-10-04T00:28:18.370Z,4.30
2022-10-04T00:32:32.127Z,4.30
2022-10-04T00:36:53.282Z,4.20
2022-10-04T00:41:01.211Z,4.20
2022-10-04T00:45:14.905Z,4.10
2022-10-04T00:49:21.516Z,4.10
2022-10-04T00:53:48.563Z,4.10
2022-10-04T00:57:59.553Z,4.10
2022-10-04T01:02:08.148Z,4.20
2022-10-04T01:06:14.365Z,4.10
2022-10-04T01:10:23.315Z,4.10
2022-10-04T01:14:35.520Z,4.00
2022-10-04T01:18:40.583Z,4.00
2022-10-04T01:22:52.982Z,4.00
2022-10-04T01:26:56.342Z,3.90
2022-10-04T01:31:00.184Z,3.90
2022-10-04T01:35:03.644Z,3.90
2022-10-04T01:39:09.467Z,3.90
2022-10-04T01:43:16.502Z,3.90
2022-10-04T01:47:24.459Z,3.80
2022-10-04T01:51:33.464Z,3.80
2022-10-04T01:55:41.850Z,3.80
2022-10-04T01:59:50.373Z,3.80
2022-10-04T02:03:59.317Z,3.80
2022-10-04T02:08:06.769Z,3.70
2022-10-04T02:12:16.600Z,3.70
2022-10-04T02:16:22.011Z,3.70
2022-10-04T02:20:28.293Z,3.70
2022-10-04T02:24:34.214Z,3.60
2022-10-04T02:28:39.470Z,3.60
2022-10-04T02:33:00.509Z,3.60
2022-10-04T02:37:05.897Z,3.60
2022-10-04T02:41:15.574Z,3.50
2022-10-04T02:45:26.231Z,3.50
2022-10-04T02:49:34.133Z,3.50
2022-10-04T02:53:47.327Z,3.50
2022-10-04T02:57:52.613Z,3.50
2022-10-04T03:01:59.771Z,3.50
2022-10-04T03:06:06.174Z,3.40
2022-10-04T03:10:12.520Z,3.40
2022-10-04T03:14:20.342Z,3.40
2022-10-04T03:18:26.481Z,3.40
2022-10-04T03:22:29.757Z,3.50
2022-10-04T03:26:37.924Z,3.40
2022-10-04T03:30:45.689Z,3.40
2022-10-04T03:34:57.144Z,3.50
2022-10-04T03:39:01.054Z,3.40
2022-10-04T03:43:06.874Z,3.40
2022-10-04T03:47:12.333Z,3.40
2022-10-04T03:51:21.376Z,3.40
2022-10-04T03:55:27.882Z,3.30
2022-10-04T03:59:31.482Z,3.30
2022-10-04T04:03:43.193Z,3.30
2022-10-04T04:07:55.857Z,3.20
2022-10-04T04:12:01.030Z,3.20
2022-10-04T04:16:05.701Z,3.30
2022-10-04T04:20:19.907Z,3.30
2022-10-04T04:24:29.291Z,3.30
2022-10-04T04:28:36.734Z,3.30
2022-10-04T04:32:43.212Z,3.30
2022-10-04T04:36:46.716Z,3.30
2022-10-04T04:40:55.681Z,3.30
2022-10-04T04:45:02.216Z,3.30
2022-10-04T04:49:06.321Z,3.40
2022-10-04T04:53:17.049Z,3.40
2022-10-04T04:57:23.148Z,3.40
2022-10-04T05:01:29.834Z,3.40
2022-10-04T05:05:34.749Z,3.50
2022-10-04T05:09:39.579Z,3.60
2022-10-04T05:13:50.925Z,3.70
2022-10-04T05:17:54.398Z,3.70
2022-10-04T05:22:00.745Z,3.80
2022-10-04T05:26:04.710Z,4.00
2022-10-04T05:30:19.588Z,4.10
2022-10-04T05:34:25.727Z,4.20
2022-10-04T05:38:35.133Z,4.40
2022-10-04T05:42:41.579Z,4.50
2022-10-04T05:46:46.419Z,4.60
2022-10-04T05:50:50.466Z,4.70
2022-10-04T05:55:17.909Z,4.80
2022-10-04T05:59:37.958Z,4.90
2022-10-04T06:04:04.371Z,5.10
2022-10-04T06:08:15.672Z,5.20
2022-10-04T06:12:30.366Z,5.40
2022-10-04T06:16:48.178Z,5.50
2022-10-04T06:21:11.345Z,5.70
2022-10-04T06:25:23.435Z,5.90
2022-10-04T06:29:34.268Z,6.00
2022-10-04T06:33:56.467Z,6.10
2022-10-04T06:38:42.654Z,6.30
2022-10-04T06:43:03.394Z,6.50
2022-10-04T06:47:22.542Z,6.70
2022-10-04T06:51:43.655Z,6.90
2022-10-04T06:56:12.777Z,7.00
2022-10-04T07:00:22.453Z,7.10
2022-10-04T07:05:06.458Z,7.30
2022-10-04T07:09:07.961Z,7.40
2022-10-04T07:13:33.336Z,7.40
2022-10-04T07:17:43.148Z,7.60
2022-10-04T07:21:54.883Z,8.00
2022-10-04T07:26:04.944Z,8.40
2022-10-04T07:30:18.117Z,9.00
2022-10-04T07:34:28.382Z,9.30
2022-10-04T07:38:35.496Z,9.60
2022-10-04T07:42:48.643Z,10.00
2022-10-04T07:46:59.774Z,10.20
2022-10-04T07:51:15.453Z,10.60
2022-10-04T07:55:25.126Z,11.10
2022-10-04T07:59:41.818Z,11.50
2022-10-04T08:03:59.583Z,12.00
2022-10-04T08:08:24.738Z,12.30
2022-10-04T08:12:37.660Z,12.50
2022-10-04T08:16:55.716Z,12.70
2022-10-04T08:21:00.898Z,12.90
2022-10-04T08:25:17.688Z,13.00
2022-10-04T08:29:49.993Z,13.20
2022-10-04T08:34:14.004Z,13.50
2022-10-04T08:38:36.827Z,14.10
2022-10-04T08:43:14.730Z,14.40
2022-10-04T08:47:52.581Z,14.50
2022-10-04T08:52:35.106Z,14.10
2022-10-04T08:56:57.897Z,14.10
2022-10-04T09:01:18.839Z,14.80
2022-10-04T09:05:47.748Z,14.60
2022-10-04T09:10:25.157Z,14.50
2022-10-04T09:14:57.451Z,14.40
2022-10-04T09:19:22.171Z,14.60
2022-10-04T09:24:22.474Z,15.10
2022-10-04T09:29:05.195Z,15.30
2022-10-04T09:33:40.377Z,15.30
2022-10-04T09:38:11.081Z,15.50
2022-10-04T09:42:27.897Z,18.30
2022-10-04T09:46:56.310Z,21.30
2022-10-04T09:51:26.100Z,23.10
2022-10-04T09:55:59.540Z,23.70
2022-10-04T10:00:18.626Z,24.70
2022-10-04T10:04:42.580Z,21.20
2022-10-04T10:08:59.632Z,19.00
2022-10-04T10:13:43.818Z,17.80
2022-10-04T10:17:56.818Z,17.30
2022-10-04T10:22:17.422Z,17.10
2022-10-04T10:26:33.269Z,16.80
2022-10-04T10:30:59.481Z,16.80
2022-10-04T10:35:25.137Z,17.20
2022-10-04T10:39:54.229Z,20.40
2022-10-04T10:44:27.065Z,22.90
2022-10-04T10:48:50.480Z,24.80
2022-10-04T10:53:29.311Z,25.40
2022-10-04T10:58:01.711Z,26.90
2022-10-04T11:02:49.492Z,27.70
2022-10-04T11:07:31.648Z,28.20
2022-10-04T11:12:21.446Z,28.30
2022-10-04T11:17:09.849Z,29.30
2022-10-04T11:22:07.577Z,29.00
2022-10-04T11:26:32.959Z,29.60
2022-10-04T11:31:02.656Z,29.60
2022-10-04T11:35:47.670Z,31.10
2022-10-04T11:40:13.042Z,30.40
2022-10-04T11:44:41.327Z,31.00
2022-10-04T11:48:59.036Z,30.00
2022-10-04T11:53:47.776Z,30.50
2022-10-04T11:57:55.776Z,31.40
2022-10-04T12:02:50.580Z,31.30
2022-10-04T12:07:14.116Z,32.00
2022-10-04T12:12:13.402Z,32.60
2022-10-04T12:16:52.444Z,31.50
2022-10-04T12:21:17.135Z,30.70
2022-10-04T12:25:54.251Z,30.40
2022-10-04T12:30:23.291Z,30.50
2022-10-04T12:34:34.487Z,30.50
2022-10-04T12:38:59.053Z,31.20
2022-10-04T12:43:10.942Z,30.90
2022-10-04T12:47:48.507Z,30.80
2022-10-04T12:51:59.350Z,31.00
2022-10-04T12:56:21.991Z,31.60
2022-10-04T13:00:29.616Z,33.20
2022-10-04T13:04:40.567Z,32.70
2022-10-04T13:09:08.811Z,33.00
2022-10-04T13:13:33.298Z,34.70
2022-10-04T13:17:51.009Z,33.10
2022-10-04T13:22:37.569Z,31.60
2022-10-04T13:26:49.185Z,30.50
2022-10-04T13:31:03.102Z,32.40
2022-10-04T13:35:17.886Z,33.70
2022-10-04T13:39:47.294Z,34.70
2022-10-04T13:44:15.433Z,33.70
2022-10-04T13:48:43.061Z,33.20
2022-10-04T13:53:15.197Z,33.80
2022-10-04T13:57:31.827Z,34.60
2022-10-04T14:02:04.571Z,34.50
2022-10-04T14:06:47.862Z,34.30
2022-10-04T14:11:30.352Z,34.40
2022-10-04T14:15:57.553Z,34.90
2022-10-04T14:20:44.491Z,31.90
2022-10-04T14:25:21.656Z,26.30
2022-10-04T14:29:56.797Z,23.30
2022-10-04T14:34:35.533Z,21.10
2022-10-04T14:39:14.149Z,19.20
2022-10-04T14:43:53.279Z,18.10
2022-10-04T14:48:37.061Z,17.30
2022-10-04T14:52:53.796Z,16.80
2022-10-04T14:57:02.254Z,16.40
2022-10-04T15:01:22.851Z,16.10
2022-10-04T15:05:37.436Z,15.80
2022-10-04T15:10:05.706Z,15.60
2022-10-04T15:14:28.062Z,15.40
2022-10-04T15:18:48.391Z,15.20
2022-10-04T15:22:57.269Z,14.90
2022-10-04T15:27:46.814Z,14.70
2022-10-04T15:32:05.750Z,14.50
2022-10-04T15:36:32.064Z,14.30
2022-10-04T15:40:43.118Z,14.10
2022-10-04T15:45:17.512Z,13.90
2022-10-04T15:49:49.107Z,13.60
2022-10-04T15:54:11.151Z,13.40
2022-10-04T15:58:39.908Z,13.20
2022-10-04T16:03:11.717Z,13.00
2022-10-04T16:08:15.641Z,12.80
2022-10-04T16:12:29.639Z,12.50
2022-10-04T16:17:00.104Z,12.30
2022-10-04T16:21:29.155Z,12.10
2022-10-04T16:25:41.048Z,11.90
2022-10-04T16:30:25.675Z,11.60
2022-10-04T16:35:00.461Z,11.50
2022-10-04T16:39:24.971Z,11.20
2022-10-04T16:43:31.072Z,11.10
2022-10-04T16:47:57.739Z,10.90
2022-10-04T16:52:39.277Z,10.70
2022-10-04T16:57:24.478Z,10.50
2022-10-04T17:02:03.641Z,10.40
2022-10-04T17:06:15.342Z,10.20
2022-10-04T17:10:38.819Z,10.10
2022-10-04T17:15:16.626Z,10.00
2022-10-04T17:19:34.306Z,9.80
2022-10-04T17:24:03.486Z,9.70
2022-10-04T17:28:26.421Z,9.60
2022-10-04T17:32:56.125Z,9.50
2022-10-04T17:37:13.605Z,9.40
2022-10-04T17:41:45.708Z,9.30
2022-10-04T17:46:10.217Z,9.20
2022-10-04T17:50:39.109Z,9.10
2022-10-04T17:55:11.972Z,9.00
2022-10-04T17:59:26.272Z,9.00
2022-10-04T18:08:18.985Z,8.80
2022-10-04T18:17:07.233Z,8.70
2022-10-04T18:21:31.653Z,8.60
2022-10-04T18:25:36.909Z,8.60
2022-10-04T18:29:45.712Z,8.50
2022-10-04T18:33:56.827Z,8.50
2022-10-04T18:38:29.452Z,8.40
2022-10-04T18:42:40.219Z,8.40
2022-10-04T18:46:52.907Z,8.30
2022-10-04T18:50:57.565Z,8.30
2022-10-04T18:55:27.964Z,8.20
2022-10-04T18:59:58.295Z,8.10
2022-10-04T19:04:12.925Z,8.10
2022-10-04T19:08:46.719Z,8.10
2022-10-04T19:13:25.503Z,8.00
2022-10-04T19:17:40.791Z,7.90
2022-10-04T19:22:11.839Z,7.90
2022-10-04T19:26:31.977Z,7.80
2022-10-04T19:31:05.201Z,7.80
2022-10-04T19:35:24.894Z,7.70
2022-10-04T19:39:52.482Z,7.60
2022-10-04T19:44:04.578Z,7.60
2022-10-04T19:48:25.490Z,7.60
2022-10-04T19:52:57.903Z,7.50
2022-10-04T20:01:18.002Z,7.40
2022-10-04T20:05:26.748Z,7.40
2022-10-04T20:09:35.738Z,7.30
2022-10-04T20:13:40.989Z,7.20
2022-10-04T20:17:45.715Z,7.20
2022-10-04T20:21:55.967Z,7.10
2022-10-04T20:26:04.038Z,7.10
2022-10-04T20:30:16.869Z,7.10
2022-10-04T20:34:44.737Z,6.90
2022-10-04T20:39:01.588Z,6.90
2022-10-04T20:43:27.545Z,6.90
2022-10-04T20:47:46.412Z,6.90
2022-10-04T20:51:51.851Z,6.80
2022-10-04T20:56:11.892Z,6.80
2022-10-04T21:00:21.817Z,6.80
2022-10-04T21:08:53.492Z,6.70
2022-10-04T21:12:57.839Z,6.70
2022-10-04T21:17:03.184Z,6.60
2022-10-04T21:21:10.771Z,6.60
2022-10-04T21:25:34.527Z,6.60
2022-10-04T21:29:38.647Z,6.50
2022-10-04T21:33:41.924Z,6.50
2022-10-04T21:37:55.478Z,6.40
2022-10-04T21:41:58.746Z,6.40
2022-10-04T21:46:19.343Z,6.40
2022-10-04T21:50:23.908Z,6.40
2022-10-04T21:54:35.643Z,6.30
2022-10-04T21:58:41.900Z,6.30
2022-10-04T22:02:45.283Z,6.30
2022-10-04T22:06:49.060Z,6.30
2022-10-04T22:10:57.847Z,6.20
2022-10-04T22:15:01.171Z,6.20
2022-10-04T22:19:04.908Z,6.20
2022-10-04T22:23:18.458Z,6.10
2022-10-04T22:27:23.135Z,6.10
2022-10-04T22:31:28.309Z,6.10
2022-10-04T22:35:40.619Z,6.00
2022-10-04T22:39:43.798Z,6.00
2022-10-04T22:43:51.373Z,6.00
2022-10-04T22:47:57.179Z,5.90
2022-10-04T22:52:03.014Z,5.90
2022-10-04T22:56:41.240Z,5.80
2022-10-04T23:00:46.652Z,5.80
2022-10-04T23:04:53.161Z,5.80
2022-10-04T23:08:56.685Z,5.80
2022-10-04T23:13:00.089Z,5.80
2022-10-04T23:17:18.229Z,5.70
2022-10-04T23:21:24.621Z,5.70
2022-10-04T23:25:30.256Z,5.70
2022-10-04T23:29:36.124Z,5.60
2022-10-04T23:33:42.713Z,5.60
2022-10-04T23:38:12.699Z,5.60
2022-10-04T23:42:20.138Z,5.60
2022-10-04T23:46:24.732Z,5.70
2022-10-04T23:50:51.982Z,5.60
2022-10-04T23:54:56.141Z,5.60
2022-10-04T23:59:00.666Z,5.50
